Time;durP1;ratioP1;P1;durP2;ratioP2;P2;SDS_P1;SDS_P2;PMS_P1;PMS_P2;Temp;Humidity;BMP_temperature;BMP_pressure;BME280_temperature;BME280_humidity;BME280_pressure;Samples;Min_cycle;Max_cycle;Signal;HPM_P1;HPM_P2
2022/10/02 00:00:39;;;;;;;0.20;0.10;;;18.40;99.90;;;;;;21260885;28;20241;-68
2022/10/02 00:10:49;;;;;;;0.20;0.10;;;18.40;99.90;;;;;;21260415;28;20264;-70
2022/10/02 00:21:02;;;;;;;0.20;0.00;;;18.30;99.90;;;;;;21259765;28;20249;-69
2022/10/02 00:31:21;;;;;;;0.20;0.00;;;18.30;99.90;;;;;;21240795;28;20535;-69
2022/10/02 00:41:58;;;;;;;0.20;0.00;;;18.40;99.90;;;;;;21258000;28;20229;-70
2022/10/02 00:52:19;;;;;;;0.20;0.10;;;18.20;99.90;;;;;;21256964;28;20250;-69
2022/10/02 01:02:46;;;;;;;0.20;0.10;;;18.00;99.90;;;;;;21256102;28;20235;-69
2022/10/02 01:12:52;;;;;;;0.20;0.00;;;17.80;99.90;;;;;;21255211;28;20231;-69
2022/10/02 01:23:04;;;;;;;0.20;0.10;;;17.70;99.90;;;;;;21253970;28;20219;-69
2022/10/02 01:33:12;;;;;;;0.20;0.10;;;18.00;99.90;;;;;;21253616;28;20187;-70
2022/10/02 01:43:19;;;;;;;0.20;0.10;;;18.10;99.90;;;;;;21234579;28;20253;-68
2022/10/02 01:53:33;;;;;;;0.20;0.10;;;18.40;99.90;;;;;;21253126;28;20196;-68
2022/10/02 02:03:44;;;;;;;0.20;0.10;;;18.40;99.90;;;;;;21251951;28;20229;-67
2022/10/02 02:13:56;;;;;;;0.20;0.10;;;18.40;99.90;;;;;;21252082;28;20229;-69
2022/10/02 02:24:04;;;;;;;0.20;0.00;;;18.20;99.90;;;;;;21251315;28;20210;-68
2022/10/02 02:34:13;;;;;;;0.20;0.10;;;18.00;99.90;;;;;;21250827;28;20175;-69
2022/10/02 02:44:22;;;;;;;0.20;0.00;;;18.10;99.90;;;;;;21250367;28;20219;-67
2022/10/02 02:54:34;;;;;;;0.20;0.00;;;17.60;99.90;;;;;;21257217;28;20183;-69
2022/10/02 03:04:38;;;;;;;0.20;0.00;;;17.70;99.90;;;;;;21247840;28;20234;-67
2022/10/02 03:15:08;;;;;;;0.20;0.00;;;18.20;99.90;;;;;;21264873;28;20214;-69
2022/10/02 03:25:16;;;;;;;0.20;0.10;;;18.50;99.90;;;;;;21246414;28;20271;-69
2022/10/02 03:35:23;;;;;;;0.20;0.00;;;18.20;99.90;;;;;;21263277;28;20279;-68
2022/10/02 03:45:28;;;;;;;0.20;0.10;;;18.20;99.90;;;;;;21244090;28;20224;-70
2022/10/02 03:55:55;;;;;;;0.20;0.00;;;18.30;99.90;;;;;;21191897;27;20215;-69
2022/10/02 04:06:04;;;;;;;0.20;0.10;;;18.20;99.90;;;;;;21174844;28;20261;-69
2022/10/02 04:16:16;;;;;;;0.20;0.00;;;18.60;99.90;;;;;;21175593;28;20188;-68
2022/10/02 04:26:24;;;;;;;0.20;0.10;;;20.00;99.90;;;;;;21174029;28;20223;-69
2022/10/02 04:36:43;;;;;;;0.20;0.00;;;20.00;99.90;;;;;;21173398;28;20195;-68
2022/10/02 04:47:16;;;;;;;0.20;0.10;;;20.00;99.90;;;;;;21155237;28;20215;-68
2022/10/02 04:57:48;;;;;;;0.20;0.00;;;19.60;99.90;;;;;;21098198;28;20202;-68
2022/10/02 05:08:11;;;;;;;0.20;0.10;;;18.80;99.90;;;;;;21171052;28;20270;-69
2022/10/02 05:18:40;;;;;;;0.20;0.10;;;18.30;99.90;;;;;;21169248;28;20234;-68
2022/10/02 05:29:03;;;;;;;0.20;0.10;;;18.40;99.90;;;;;;21151726;28;20260;-67
2022/10/02 05:39:12;;;;;;;0.20;0.10;;;18.20;99.90;;;;;;21168559;28;20219;-67
2022/10/02 05:49:19;;;;;;;0.20;0.10;;;18.00;99.90;;;;;;21168413;28;20197;-68
2022/10/02 05:59:33;;;;;;;0.20;0.10;;;18.20;99.90;;;;;;21166883;28;20288;-67
2022/10/02 06:09:45;;;;;;;0.20;0.10;;;18.30;99.90;;;;;;21166563;28;20277;-69
2022/10/02 06:19:55;;;;;;;0.20;0.03;;;18.40;99.90;;;;;;21166269;28;20219;-68
2022/10/02 06:30:10;;;;;;;0.20;0.10;;;18.80;99.90;;;;;;21175895;28;20243;-68
2022/10/02 06:40:37;;;;;;;0.20;0.10;;;19.10;99.90;;;;;;21181898;28;20211;-68
2022/10/02 06:50:45;;;;;;;0.20;0.10;;;19.30;99.90;;;;;;21227009;28;20187;-68
2022/10/02 07:00:57;;;;;;;0.20;0.10;;;19.70;99.90;;;;;;21264321;28;20223;-67
2022/10/02 07:11:08;;;;;;;0.20;0.10;;;20.00;99.90;;;;;;21262709;28;20203;-68
2022/10/02 07:21:21;;;;;;;0.20;0.00;;;20.40;99.90;;;;;;21260990;28;20210;-68
2022/10/02 07:31:35;;;;;;;0.20;0.00;;;20.80;99.90;;;;;;21244435;28;20191;-69
2022/10/02 07:42:05;;;;;;;0.20;0.10;;;21.10;99.90;;;;;;21259839;28;20302;-68
2022/10/02 07:52:21;;;;;;;0.20;0.00;;;21.30;99.90;;;;;;21260551;28;20209;-67
2022/10/02 08:02:32;;;;;;;0.20;0.00;;;21.50;99.90;;;;;;21240117;28;20227;-66
2022/10/02 08:12:43;;;;;;;0.20;0.00;;;21.80;99.90;;;;;;21256050;28;20222;-67
2022/10/02 08:22:53;;;;;;;0.20;0.00;;;21.60;99.90;;;;;;21253775;28;20217;-67
2022/10/02 08:32:57;;;;;;;0.20;0.00;;;22.10;99.90;;;;;;21254047;28;20238;-67
2022/10/02 08:43:58;;;;;;;0.20;0.00;;;22.40;99.90;;;;;;21246014;27;20219;-68
2022/10/02 08:54:37;;;;;;;0.20;0.00;;;22.90;99.90;;;;;;21171179;27;20191;-68
2022/10/02 09:05:11;;;;;;;0.20;0.00;;;23.30;99.90;;;;;;21252413;27;20424;-68
2022/10/02 09:15:18;;;;;;;0.20;0.00;;;23.60;99.90;;;;;;21246890;27;20207;-69
2022/10/02 09:25:31;;;;;;;0.20;0.00;;;23.60;99.90;;;;;;21247602;27;20230;-68
2022/10/02 09:36:04;;;;;;;0.20;0.00;;;24.10;99.90;;;;;;21226032;28;20187;-68
2022/10/02 09:47:07;;;;;;;0.20;0.00;;;24.30;99.90;;;;;;21262284;27;20226;-69
2022/10/02 09:57:51;;;;;;;0.20;0.00;;;24.40;99.90;;;;;;21052008;28;20198;-68
2022/10/02 10:08:24;;;;;;;0.20;0.00;;;24.60;99.90;;;;;;21223911;28;20257;-68
2022/10/02 10:19:06;;;;;;;0.20;0.00;;;24.90;99.90;;;;;;21223857;28;20218;-68
2022/10/02 10:29:44;;;;;;;0.20;0.00;;;25.50;99.90;;;;;;21192277;28;20223;-67
2022/10/02 10:40:22;;;;;;;0.20;0.00;;;25.30;99.90;;;;;;21161744;28;20215;-68
2022/10/02 10:50:44;;;;;;;0.20;0.10;;;25.40;99.90;;;;;;21162200;28;20188;-67
2022/10/02 11:01:07;;;;;;;0.20;0.10;;;26.10;99.90;;;;;;21159468;28;20245;-67
2022/10/02 11:11:21;;;;;;;0.20;0.00;;;26.30;99.90;;;;;;21159739;28;20288;-68
2022/10/02 11:22:01;;;;;;;0.20;0.10;;;26.30;99.90;;;;;;21157145;28;20240;-67
2022/10/02 11:32:30;;;;;;;0.20;0.00;;;26.90;99.90;;;;;;21146717;28;20191;-68
2022/10/02 11:42:57;;;;;;;0.20;0.00;;;27.40;99.90;;;;;;21171401;28;20235;-68
2022/10/02 11:53:34;;;;;;;0.20;0.00;;;27.10;99.90;;;;;;21152833;28;20200;-70
2022/10/02 12:03:57;;;;;;;0.20;0.00;;;27.30;99.90;;;;;;21165843;28;20258;-68
2022/10/02 12:14:17;;;;;;;0.20;0.00;;;27.80;99.90;;;;;;21166200;28;20216;-68
2022/10/02 12:35:14;;;;;;;0.20;0.00;;;27.90;99.90;;;;;;21130713;28;20195;-68
2022/10/02 12:45:42;;;;;;;0.20;0.10;;;28.10;99.90;;;;;;21169752;28;20223;-68
2022/10/02 12:56:06;;;;;;;0.20;0.00;;;28.50;99.90;;;;;;21151410;28;20188;-69
2022/10/02 13:06:43;;;;;;;0.20;0.00;;;29.40;99.90;;;;;;21166273;28;20331;-68
2022/10/02 13:17:08;;;;;;;0.20;0.00;;;29.70;99.90;;;;;;21178011;27;20232;-66
2022/10/02 13:27:28;;;;;;;0.20;0.00;;;30.30;99.90;;;;;;21235422;27;20223;-68
2022/10/02 13:37:44;;;;;;;0.20;0.00;;;31.10;99.90;;;;;;21214372;28;20202;-68
2022/10/02 13:47:58;;;;;;;0.20;0.00;;;30.60;99.90;;;;;;21231594;28;20226;-67
2022/10/02 13:58:39;;;;;;;0.20;0.00;;;30.90;99.90;;;;;;21229728;28;20256;-69
2022/10/02 14:09:08;;;;;;;0.20;0.00;;;31.60;99.90;;;;;;21229781;28;20239;-68
2022/10/02 14:19:44;;;;;;;0.20;0.00;;;32.10;99.90;;;;;;21220740;28;20215;-69
2022/10/02 14:29:57;;;;;;;0.20;0.00;;;32.00;99.90;;;;;;21221742;28;20186;-68
2022/10/02 14:40:10;;;;;;;0.20;0.00;;;31.40;99.90;;;;;;21253929;28;20215;-70
2022/10/02 14:50:46;;;;;;;0.20;0.00;;;31.20;99.90;;;;;;21263167;27;20187;-68
2022/10/02 15:01:09;;;;;;;0.20;0.00;;;30.20;99.90;;;;;;21265414;27;20219;-69
2022/10/02 15:11:25;;;;;;;0.20;0.00;;;31.30;99.90;;;;;;21239286;28;20235;-70
2022/10/02 15:21:33;;;;;;;0.20;0.00;;;30.80;99.90;;;;;;21242182;28;20230;-69
2022/10/02 15:31:44;;;;;;;0.20;0.00;;;31.10;99.90;;;;;;21285002;27;20187;-69
2022/10/02 15:42:00;;;;;;;0.20;0.00;;;30.90;99.90;;;;;;21238932;28;20217;-69
2022/10/02 15:52:14;;;;;;;0.20;0.00;;;30.20;99.90;;;;;;21240115;28;20264;-68
2022/10/02 16:02:35;;;;;;;0.20;0.00;;;29.10;99.90;;;;;;21250644;27;20310;-69
2022/10/02 16:13:06;;;;;;;0.20;0.10;;;26.30;99.90;;;;;;21253112;28;20279;-70
2022/10/02 16:23:24;;;;;;;0.20;0.00;;;25.50;99.90;;;;;;21254893;28;20215;-71
2022/10/02 16:33:37;;;;;;;0.20;0.00;;;25.40;99.90;;;;;;21249579;28;20195;-69
2022/10/02 16:43:59;;;;;;;0.20;0.10;;;24.80;99.90;;;;;;21227618;28;20223;-69
2022/10/02 16:54:17;;;;;;;0.20;0.00;;;24.50;99.90;;;;;;21249880;28;20199;-69
2022/10/02 17:04:28;;;;;;;0.20;0.08;;;24.30;99.90;;;;;;21249908;28;20243;-68
2022/10/02 17:14:43;;;;;;;0.20;0.00;;;24.30;99.90;;;;;;21245320;27;20522;-69
2022/10/02 17:24:54;;;;;;;0.20;0.00;;;24.40;99.90;;;;;;21247307;27;20223;-68
2022/10/02 17:34:59;;;;;;;0.20;0.00;;;24.00;99.90;;;;;;21228765;28;20179;-70
2022/10/02 17:45:15;;;;;;;0.20;0.00;;;23.90;99.90;;;;;;21226800;28;20219;-69
2022/10/02 18:06:13;;;;;;;0.20;0.00;;;23.50;99.90;;;;;;21244827;28;20235;-70
2022/10/02 18:16:31;;;;;;;0.20;0.00;;;23.40;99.90;;;;;;21226098;28;20188;-68
2022/10/02 18:26:49;;;;;;;0.20;0.00;;;22.50;99.90;;;;;;21260221;27;20234;-70
2022/10/02 18:37:13;;;;;;;0.20;0.00;;;22.40;99.90;;;;;;21332632;27;20202;-71
2022/10/02 18:47:32;;;;;;;0.20;0.00;;;21.80;99.90;;;;;;21330275;27;20226;-71
2022/10/02 18:57:50;;;;;;;0.20;0.00;;;21.60;99.90;;;;;;21330497;27;20205;-69
2022/10/02 19:08:09;;;;;;;0.20;0.00;;;21.50;99.90;;;;;;21273732;27;20243;-70
2022/10/02 19:18:19;;;;;;;0.20;0.10;;;21.00;99.90;;;;;;21243206;28;20225;-71
2022/10/02 19:28:27;;;;;;;0.20;0.00;;;20.90;99.90;;;;;;21256686;27;20218;-69
2022/10/02 19:38:36;;;;;;;0.20;0.00;;;20.70;99.90;;;;;;21343691;27;20207;-70
2022/10/02 19:48:40;;;;;;;0.20;0.00;;;20.60;99.90;;;;;;21237000;28;20262;-70
2022/10/02 19:58:49;;;;;;;0.20;0.10;;;20.60;99.90;;;;;;21240900;27;20184;-69
2022/10/02 20:08:59;;;;;;;0.20;0.00;;;20.30;99.90;;;;;;21257806;27;20227;-70
2022/10/02 20:19:06;;;;;;;0.20;0.00;;;20.30;99.90;;;;;;21224684;27;20217;-70
2022/10/02 20:29:17;;;;;;;0.20;0.00;;;20.00;99.90;;;;;;21216987;27;20328;-70
2022/10/02 20:39:28;;;;;;;0.20;0.00;;;19.90;99.90;;;;;;21252737;28;20205;-70
2022/10/02 20:50:04;;;;;;;0.20;0.10;;;19.70;99.90;;;;;;21234234;28;20230;-70
2022/10/02 21:00:20;;;;;;;0.20;0.10;;;19.50;99.90;;;;;;21205364;28;20238;-70
2022/10/02 21:10:59;;;;;;;0.20;0.10;;;19.40;99.90;;;;;;21230708;28;20226;-68
2022/10/02 21:21:40;;;;;;;0.20;0.00;;;19.30;99.90;;;;;;21191416;28;20238;-69
2022/10/02 21:32:13;;;;;;;0.20;0.00;;;19.40;99.90;;;;;;21248576;28;20191;-69
2022/10/02 21:42:53;;;;;;;0.20;0.00;;;19.60;99.90;;;;;;21248330;28;20223;-69
2022/10/02 21:53:46;;;;;;;0.20;0.00;;;20.30;99.90;;;;;;21199394;28;20268;-69
2022/10/02 22:04:21;;;;;;;0.20;0.00;;;20.40;99.90;;;;;;21193626;28;20664;-69
2022/10/02 22:14:33;;;;;;;0.20;0.00;;;20.00;99.90;;;;;;21229483;28;20216;-69
2022/10/02 22:25:07;;;;;;;0.20;0.00;;;19.70;99.90;;;;;;21228671;28;20219;-69
2022/10/02 22:35:18;;;;;;;0.20;0.00;;;19.60;99.90;;;;;;21207887;28;20206;-68
2022/10/02 22:45:29;;;;;;;0.20;0.10;;;19.70;99.90;;;;;;21249156;28;20214;-70
2022/10/02 22:55:36;;;;;;;0.20;0.10;;;19.50;99.90;;;;;;21246895;28;20187;-69
2022/10/02 23:05:46;;;;;;;0.20;0.10;;;19.50;99.90;;;;;;21229768;28;20244;-68
2022/10/02 23:15:57;;;;;;;0.20;0.00;;;19.20;99.90;;;;;;21264789;28;20209;-69
2022/10/02 23:26:06;;;;;;;0.20;0.00;;;18.90;99.90;;;;;;21264627;28;20219;-70
2022/10/02 23:36:24;;;;;;;0.20;0.10;;;18.70;99.90;;;;;;21263948;28;20223;-69
2022/10/02 23:46:52;;;;;;;0.20;0.00;;;18.70;99.90;;;;;;21244955;28;20219;-69
2022/10/02 23:57:13;;;;;;;0.20;0.10;;;18.90;99.90;;;;;;21262090;28;20199;-70
